Time;durP1;ratioP1;P1;durP2;ratioP2;P2;SDS_P1;SDS_P2;PMS_P1;PMS_P2;Temp;Humidity;BMP_temperature;BMP_pressure;BME280_temperature;BME280_humidity;BME280_pressure;Samples;Min_cycle;Max_cycle;Signal;HPM_P1;HPM_P2
2022/12/12 09:52:34;;;;;;;33.22;16.08;;;;;;;-1.65;74.57;96040.28;2093585;27;20389;-55
2022/12/12 09:53:38;;;;;;;35.30;16.27;;;;;;;-1.41;73.54;96046.09;2090393;28;20232;-55
2022/12/12 09:54:39;;;;;;;33.38;17.85;;;;;;;-1.53;73.80;96041.91;2090889;28;20203;-55
2022/12/12 09:56:12;;;;;;;29.15;13.85;;;;;;;-1.37;72.16;96050.31;2090163;28;20204;-55
2022/12/12 09:57:36;;;;;;;27.23;13.85;;;;;;;-1.23;72.53;96057.91;2085730;28;20228;-55
2022/12/12 09:59:02;;;;;;;27.10;13.75;;;;;;;-1.26;72.44;96056.22;2078559;28;20229;-55
2022/12/12 10:00:08;;;;;;;27.85;14.05;;;;;;;-1.49;72.76;96056.38;2080024;28;20281;-55
2022/12/12 10:01:26;;;;;;;26.00;13.55;;;;;;;-1.30;71.82;96051.97;2082748;28;20655;-55
2022/12/12 10:02:47;;;;;;;25.38;11.80;;;;;;;-1.51;71.99;96050.41;2082552;28;20259;-55
2022/12/12 10:04:03;;;;;;;28.02;13.13;;;;;;;-1.40;71.97;96061.44;2081851;28;20228;-55
2022/12/12 10:05:32;;;;;;;29.83;14.60;;;;;;;-1.49;71.74;96054.69;2082057;28;20256;-55
2022/12/12 10:06:42;;;;;;;28.33;13.15;;;;;;;-1.69;72.58;96056.50;2080302;28;20282;-55
2022/12/12 10:07:54;;;;;;;30.98;13.65;;;;;;;-1.45;72.10;96052.09;2082018;28;20298;-55
2022/12/12 10:09:29;;;;;;;24.35;14.43;;;;;;;-1.79;72.48;96050.63;2073267;28;20600;-55
2022/12/12 10:10:35;;;;;;;27.05;12.77;;;;;;;-2.23;74.52;96052.50;2078223;28;20190;-56
2022/12/12 10:11:50;;;;;;;25.40;13.98;;;;;;;-1.83;74.50;96048.91;2081216;28;20199;-55
2022/12/12 10:12:54;;;;;;;26.30;14.77;;;;;;;-1.77;74.13;96051.44;2080138;28;20253;-55
2022/12/12 10:13:59;;;;;;;27.95;14.90;;;;;;;-1.47;74.15;96049.56;2081422;28;20276;-56
2022/12/12 10:15:05;;;;;;;28.70;14.05;;;;;;;-1.34;73.02;96028.09;2081700;28;20288;-63
2022/12/12 10:16:11;;;;;;;30.45;14.93;;;;;;;-1.32;73.10;96052.00;2082232;28;20202;-62
2022/12/12 10:17:43;;;;;;;28.85;14.82;;;;;;;-1.41;72.49;96044.41;2080088;28;20676;-62
2022/12/12 10:18:49;;;;;;;28.13;13.77;;;;;;;-1.65;73.38;96043.69;2080833;28;20213;-63
2022/12/12 10:19:55;;;;;;;23.42;12.85;;;;;;;-1.04;72.27;96051.78;2078524;28;20214;-62
2022/12/12 10:21:00;;;;;;;27.77;13.18;;;;;;;-0.87;70.91;96041.38;2080528;28;20194;-62
2022/12/12 10:22:07;;;;;;;26.20;13.85;;;;;;;-0.33;70.64;96045.13;2082076;28;20790;-63
2022/12/12 10:23:21;;;;;;;26.65;12.68;;;;;;;-0.39;69.18;96043.44;2081449;28;20211;-62
2022/12/12 10:24:31;;;;;;;27.73;14.35;;;;;;;-0.57;69.88;96041.06;2081178;28;20206;-62
2022/12/12 10:25:36;;;;;;;28.77;12.88;;;;;;;-0.54;69.98;96052.16;2081507;28;20553;-63
2022/12/12 10:26:38;;;;;;;24.13;12.18;;;;;;;-0.81;70.19;96045.59;2079256;28;20571;-63
2022/12/12 10:27:40;;;;;;;27.60;13.70;;;;;;;-1.06;70.92;96038.13;2082502;28;20227;-62
2022/12/12 10:28:41;;;;;;;25.63;13.60;;;;;;;-1.52;71.35;96044.47;2081653;28;20205;-63
2022/12/12 10:29:47;;;;;;;25.75;13.85;;;;;;;-1.78;72.48;96043.78;2082210;28;20290;-62
2022/12/12 10:31:16;;;;;;;26.42;12.48;;;;;;;-1.68;73.19;96047.97;2081688;28;20233;-62
2022/12/12 10:32:21;;;;;;;31.38;14.38;;;;;;;-1.44;72.33;96048.69;2080861;28;20225;-62
2022/12/12 10:33:45;;;;;;;30.70;14.95;;;;;;;-1.36;72.81;96046.91;2082575;28;20332;-63
2022/12/12 10:35:05;;;;;;;27.85;13.60;;;;;;;-1.41;73.06;96049.53;2071952;28;20210;-63
2022/12/12 10:36:27;;;;;;;29.30;14.30;;;;;;;-0.97;72.16;96044.88;2082210;28;20241;-62
2022/12/12 10:37:49;;;;;;;28.92;15.80;;;;;;;-0.88;72.54;96047.34;2082532;28;20222;-63
2022/12/12 10:39:00;;;;;;;31.92;15.40;;;;;;;-0.86;71.86;96037.09;2082483;28;20307;-63
2022/12/12 10:40:43;;;;;;;31.75;15.30;;;;;;;-0.71;70.87;96048.91;2081123;28;20203;-62
2022/12/12 10:41:51;;;;;;;29.33;13.85;;;;;;;-0.24;70.82;96051.81;2077796;28;20253;-62
2022/12/12 10:43:11;;;;;;;28.35;14.70;;;;;;;0.26;69.11;96046.94;2080015;28;20239;-61
2022/12/12 10:44:30;;;;;;;31.52;15.50;;;;;;;0.26;68.11;96037.50;2080660;28;20267;-63
2022/12/12 10:45:42;;;;;;;27.77;14.13;;;;;;;0.25;67.91;96040.09;2079877;28;20333;-63
2022/12/12 10:46:56;;;;;;;29.35;13.55;;;;;;;0.54;67.74;96039.69;2081523;28;20232;-58
2022/12/12 10:47:57;;;;;;;28.48;14.30;;;;;;;0.70;67.37;96035.19;2081535;28;20665;-62
2022/12/12 10:48:59;;;;;;;28.13;14.45;;;;;;;0.88;66.50;96040.91;2081201;28;20203;-62
2022/12/12 10:50:33;;;;;;;28.40;14.80;;;;;;;0.81;66.19;96042.69;2081874;28;20196;-62
2022/12/12 10:51:34;;;;;;;26.25;13.75;;;;;;;0.90;65.41;96036.56;2080844;28;20232;-55
2022/12/12 10:52:36;;;;;;;31.27;14.20;;;;;;;1.24;64.71;96041.16;2082678;28;20233;-55
2022/12/12 10:53:39;;;;;;;27.60;14.10;;;;;;;1.37;64.04;96031.47;2081577;28;20204;-55
2022/12/12 10:54:46;;;;;;;29.98;14.43;;;;;;;1.37;63.45;96036.63;2082396;28;20288;-55
2022/12/12 10:55:55;;;;;;;29.95;15.20;;;;;;;1.66;63.14;96037.81;2081402;28;20361;-55
2022/12/12 10:57:08;;;;;;;27.10;15.10;;;;;;;1.67;62.68;96040.34;2077672;28;20704;-55
2022/12/12 10:58:17;;;;;;;27.20;13.68;;;;;;;2.21;62.37;96035.84;2080860;28;20201;-55
2022/12/12 10:59:22;;;;;;;30.45;15.68;;;;;;;2.41;60.76;96038.00;2082690;28;20701;-55
2022/12/12 11:00:33;;;;;;;23.90;13.93;;;;;;;2.90;59.34;96029.13;2082348;28;20198;-55
2022/12/12 11:01:37;;;;;;;28.10;14.35;;;;;;;3.03;58.19;96011.59;2081122;28;20200;-56
2022/12/12 11:03:11;;;;;;;27.17;13.43;;;;;;;2.70;59.10;96037.31;2078561;28;20217;-56
2022/12/12 11:04:16;;;;;;;28.38;14.73;;;;;;;2.54;59.07;96034.28;2075960;28;20609;-56
2022/12/12 11:05:23;;;;;;;32.17;15.23;;;;;;;2.24;59.53;96034.06;2076717;28;20545;-56
2022/12/12 11:06:37;;;;;;;25.92;13.48;;;;;;;1.90;60.06;96018.47;2078116;28;20251;-56
2022/12/12 11:07:42;;;;;;;27.58;13.75;;;;;;;2.34;59.97;96034.72;2076233;28;20356;-56
2022/12/12 11:08:58;;;;;;;26.50;14.65;;;;;;;2.33;60.02;96035.59;2075631;28;20623;-56
2022/12/12 11:10:13;;;;;;;28.25;14.35;;;;;;;2.37;59.32;96032.06;2076298;28;20269;-57
2022/12/12 11:11:25;;;;;;;26.10;12.48;;;;;;;2.24;59.68;96035.78;2076496;28;20201;-57
2022/12/12 11:12:34;;;;;;;27.88;14.13;;;;;;;2.89;58.82;96027.41;2079112;28;20710;-57
2022/12/12 11:13:53;;;;;;;25.52;13.73;;;;;;;2.56;59.42;96035.06;2079591;28;20679;-57
2022/12/12 11:15:05;;;;;;;27.35;14.63;;;;;;;3.23;58.01;96029.16;2075505;28;20560;-57
2022/12/12 11:16:15;;;;;;;27.40;13.82;;;;;;;5.43;53.63;96029.63;2076727;28;20213;-57
2022/12/12 11:17:24;;;;;;;25.67;14.15;;;;;;;8.88;46.64;96023.50;2075206;28;20347;-64
2022/12/12 11:18:25;;;;;;;27.75;14.48;;;;;;;10.30;43.26;96032.84;2075634;28;20202;-64
2022/12/12 11:19:36;;;;;;;25.92;13.52;;;;;;;10.77;40.89;96027.78;2072533;28;20203;-64
2022/12/12 11:20:46;;;;;;;29.15;15.15;;;;;;;11.30;40.25;96030.91;2076411;28;20757;-64
2022/12/12 11:21:48;;;;;;;25.05;13.45;;;;;;;11.65;39.24;96021.94;2075552;28;20692;-64
2022/12/12 11:22:53;;;;;;;24.65;13.55;;;;;;;10.08;40.79;96022.72;2072712;28;20221;-59
2022/12/12 11:23:57;;;;;;;27.95;14.48;;;;;;;9.46;42.46;96023.25;2075426;28;20217;-58
2022/12/12 11:24:59;;;;;;;25.77;13.30;;;;;;;9.48;42.49;96015.34;2072598;28;20661;-58
2022/12/12 11:26:16;;;;;;;22.58;13.32;;;;;;;8.83;42.78;96011.53;2074975;28;20205;-58
2022/12/12 11:27:25;;;;;;;24.77;13.55;;;;;;;9.25;42.71;96017.31;2073980;28;20600;-58
2022/12/12 11:28:33;;;;;;;26.00;13.38;;;;;;;10.24;41.56;96020.09;2081125;28;20611;-58
2022/12/12 11:29:45;;;;;;;24.85;13.70;;;;;;;10.88;39.89;96017.56;2078290;28;20668;-58
2022/12/12 11:30:51;;;;;;;28.88;15.02;;;;;;;11.30;39.20;96023.06;2075634;28;20217;-58
2022/12/12 11:31:54;;;;;;;30.00;15.15;;;;;;;12.68;37.68;96017.47;2076094;28;20208;-58
2022/12/12 11:32:56;;;;;;;23.30;12.75;;;;;;;12.52;37.03;96005.34;2072355;28;20253;-58
2022/12/12 11:34:00;;;;;;;24.60;13.65;;;;;;;11.15;39.00;96016.94;2072537;28;20299;-58
2022/12/12 11:35:06;;;;;;;24.05;13.85;;;;;;;10.38;39.77;96016.78;2076898;28;20232;-58
2022/12/12 11:36:16;;;;;;;25.75;13.88;;;;;;;11.08;38.71;96005.16;2077228;28;20205;-59
2022/12/12 11:37:22;;;;;;;24.20;13.68;;;;;;;10.85;38.68;96022.13;2075185;28;20545;-58
2022/12/12 11:38:29;;;;;;;26.00;13.77;;;;;;;12.60;37.14;95998.81;2076992;28;20204;-58
2022/12/12 11:39:39;;;;;;;29.23;15.45;;;;;;;14.35;34.67;96024.88;2075761;28;20212;-57
2022/12/12 11:40:43;;;;;;;21.75;13.40;;;;;;;14.54;33.67;96013.94;2075872;28;20197;-58
2022/12/12 11:42:12;;;;;;;26.02;14.77;;;;;;;12.14;36.61;96016.41;2071956;28;20224;-58
2022/12/12 11:43:24;;;;;;;30.00;15.32;;;;;;;11.97;36.81;96021.81;2073722;28;20558;-58
2022/12/12 11:44:30;;;;;;;25.80;13.40;;;;;;;13.00;35.31;96009.34;2075812;28;20203;-58
2022/12/12 11:45:32;;;;;;;24.70;12.68;;;;;;;13.31;35.24;96015.22;2072354;28;20210;-58
2022/12/12 11:46:33;;;;;;;26.42;14.00;;;;;;;13.88;34.69;96014.91;2075706;28;20903;-58
2022/12/12 11:47:45;;;;;;;26.90;13.73;;;;;;;14.30;34.19;96019.94;2079217;28;20348;-58
2022/12/12 11:48:52;;;;;;;23.98;13.95;;;;;;;14.99;32.97;96014.22;2078189;28;20201;-58
2022/12/12 11:49:59;;;;;;;22.90;12.82;;;;;;;14.95;32.60;96022.47;2076558;28;20228;-58
2022/12/12 11:51:01;;;;;;;22.05;13.65;;;;;;;14.48;33.23;96017.81;2076088;28;20203;-58
2022/12/12 11:52:17;;;;;;;25.73;14.75;;;;;;;14.01;33.95;96003.59;2075834;28;20254;-59
2022/12/12 11:53:18;;;;;;;19.02;11.38;;;;;;;15.04;32.40;96013.91;2074098;28;20300;-58
2022/12/12 11:54:26;;;;;;;22.38;12.30;;;;;;;15.89;31.47;96010.28;2075851;28;20231;-58
2022/12/12 11:55:50;;;;;;;21.60;12.00;;;;;;;14.74;32.12;96009.94;2076244;28;20225;-58
2022/12/12 11:57:03;;;;;;;26.23;14.38;;;;;;;14.48;32.74;96009.09;2076137;28;20246;-58
2022/12/12 11:58:25;;;;;;;22.58;11.88;;;;;;;15.62;31.97;96014.03;2074720;28;20267;-58
2022/12/12 12:00:02;;;;;;;27.48;12.30;;;;;;;14.43;32.79;96004.16;2075065;28;20252;-58
2022/12/12 12:01:15;;;;;;;23.83;12.55;;;;;;;14.32;33.19;96004.06;2062763;28;20708;-58
2022/12/12 12:02:30;;;;;;;26.60;13.45;;;;;;;14.71;32.89;96004.03;2073688;28;20250;-58
2022/12/12 12:04:10;;;;;;;20.83;11.85;;;;;;;15.70;31.29;96002.09;2074658;28;20220;-58
2022/12/12 12:05:33;;;;;;;26.15;14.13;;;;;;;15.52;31.31;95995.44;2074556;28;20206;-58
2022/12/12 12:06:53;;;;;;;19.50;10.90;;;;;;;15.16;31.00;95996.38;2077025;28;20197;-58
2022/12/12 12:08:22;;;;;;;28.58;12.68;;;;;;;15.88;30.45;95995.44;2074910;28;20239;-58
2022/12/12 12:09:47;;;;;;;21.52;11.25;;;;;;;15.98;30.35;95995.59;2073918;28;20194;-58
2022/12/12 12:11:24;;;;;;;21.05;12.50;;;;;;;16.39;29.68;95993.31;2077174;28;20289;-58
2022/12/12 12:12:57;;;;;;;23.35;11.65;;;;;;;15.93;30.62;96000.38;2079141;28;20229;-58
2022/12/12 12:14:41;;;;;;;18.20;10.93;;;;;;;15.21;31.24;96001.31;2078011;28;20194;-58
2022/12/12 12:15:49;;;;;;;23.98;12.25;;;;;;;16.40;30.04;96002.91;2074388;28;20243;-57
2022/12/12 12:17:08;;;;;;;21.27;12.30;;;;;;;15.18;31.20;95999.75;2075963;28;20202;-57
2022/12/12 12:18:16;;;;;;;18.23;10.73;;;;;;;14.74;31.71;96004.66;2077677;28;20569;-58
2022/12/12 12:19:34;;;;;;;21.63;11.32;;;;;;;15.56;30.79;95975.00;2072164;28;20779;-58
2022/12/12 12:20:42;;;;;;;17.27;10.82;;;;;;;14.84;30.93;95992.53;2074826;28;20278;-61
2022/12/12 12:22:06;;;;;;;34.05;12.35;;;;;;;13.20;32.86;95980.06;2074495;28;20293;-57
2022/12/12 12:23:28;;;;;;;20.92;11.57;;;;;;;14.41;31.93;95986.84;2076179;28;20304;-57
2022/12/12 12:24:38;;;;;;;20.88;11.15;;;;;;;12.42;33.37;95991.16;2074057;28;20296;-57
2022/12/12 12:25:45;;;;;;;13.45;9.15;;;;;;;11.83;33.79;95988.63;2076034;28;20205;-57
2022/12/12 12:27:05;;;;;;;16.85;9.65;;;;;;;12.03;33.32;95992.69;2074209;28;20622;-58
2022/12/12 12:28:32;;;;;;;15.77;9.15;;;;;;;10.71;34.36;95995.00;2076295;28;20202;-57
2022/12/12 12:29:49;;;;;;;16.95;8.15;;;;;;;11.55;33.92;95983.28;2074699;28;20657;-57
2022/12/12 12:31:15;;;;;;;17.08;9.35;;;;;;;11.78;33.83;95988.88;2079250;28;20208;-57
2022/12/12 12:32:48;;;;;;;15.75;8.10;;;;;;;10.83;34.72;95992.63;2076606;28;20216;-57
2022/12/12 12:34:34;;;;;;;15.10;7.57;;;;;;;11.06;34.84;95992.19;2072060;28;20229;-57
2022/12/12 12:35:48;;;;;;;18.48;9.50;;;;;;;11.39;35.00;96003.41;2056934;28;20741;-57
2022/12/12 12:36:56;;;;;;;16.58;10.23;;;;;;;11.64;35.17;95989.69;2074744;28;20205;-58
2022/12/12 12:38:11;;;;;;;18.83;9.98;;;;;;;11.30;35.92;95996.94;2074803;28;20846;-57
2022/12/12 12:39:22;;;;;;;27.05;9.93;;;;;;;12.24;33.89;95991.34;2076005;28;20197;-57
2022/12/12 12:40:55;;;;;;;17.65;9.70;;;;;;;12.14;34.23;95992.00;2075421;28;20225;-57
2022/12/12 12:42:15;;;;;;;16.73;8.80;;;;;;;12.05;34.22;95986.41;2071389;28;20198;-57
2022/12/12 12:43:22;;;;;;;16.02;8.10;;;;;;;11.69;33.59;95986.81;2073332;28;20635;-57
2022/12/12 12:44:50;;;;;;;14.15;7.22;;;;;;;11.72;33.88;95984.88;2075588;28;20198;-57
2022/12/12 12:45:59;;;;;;;13.23;7.00;;;;;;;10.86;34.57;95984.63;2076863;28;20215;-57
2022/12/12 12:47:04;;;;;;;12.70;7.32;;;;;;;10.72;34.16;95981.00;2074597;28;20200;-57
2022/12/12 12:48:16;;;;;;;10.95;4.82;;;;;;;9.96;34.04;95979.84;2075654;28;20202;-57
2022/12/12 12:49:26;;;;;;;12.00;6.05;;;;;;;9.84;34.90;95979.63;2074552;28;20626;-57
2022/12/12 12:50:37;;;;;;;16.63;8.07;;;;;;;7.99;37.68;95978.06;2073708;28;20201;-57
2022/12/12 12:51:49;;;;;;;12.93;6.47;;;;;;;9.25;36.08;95980.84;2075100;28;20210;-57
2022/12/12 12:53:21;;;;;;;14.38;5.85;;;;;;;9.19;37.01;95980.31;2076252;28;20282;-57
2022/12/12 12:54:29;;;;;;;13.02;7.57;;;;;;;8.83;37.87;95988.09;2074103;28;20235;-58
2022/12/12 12:55:41;;;;;;;12.90;6.22;;;;;;;8.90;37.62;95979.97;2073099;28;20825;-57
2022/12/12 12:57:21;;;;;;;17.48;6.78;;;;;;;8.45;37.76;95979.47;2075124;28;20558;-57
2022/12/12 12:58:29;;;;;;;17.08;7.10;;;;;;;9.19;37.83;95970.72;2072092;28;20208;-57
2022/12/12 12:59:39;;;;;;;13.07;6.47;;;;;;;10.23;36.09;95978.44;2073751;28;20286;-57
2022/12/12 13:00:40;;;;;;;14.65;7.63;;;;;;;10.15;35.73;95975.44;2074346;28;20198;-58
2022/12/12 13:01:46;;;;;;;13.90;7.15;;;;;;;10.11;35.40;95972.13;2076009;28;20285;-57
2022/12/12 13:03:16;;;;;;;19.25;10.55;;;;;;;8.91;37.25;95971.25;2074521;28;20228;-57
2022/12/12 13:04:30;;;;;;;26.02;13.15;;;;;;;9.63;36.25;95972.03;2075112;28;20284;-57
2022/12/12 13:05:37;;;;;;;14.02;6.30;;;;;;;9.06;36.46;95974.88;2074990;28;20205;-57
2022/12/12 13:06:46;;;;;;;11.50;6.50;;;;;;;9.33;36.89;95972.66;2075339;28;20250;-57
2022/12/12 13:08:14;;;;;;;15.90;7.60;;;;;;;8.96;36.89;95967.53;2073018;28;20224;-57
2022/12/12 13:09:28;;;;;;;12.68;6.43;;;;;;;8.96;36.73;95970.13;2074580;28;20202;-57
2022/12/12 13:10:30;;;;;;;11.45;6.45;;;;;;;8.20;38.35;95972.78;2073992;28;20198;-57
2022/12/12 13:11:37;;;;;;;19.92;7.13;;;;;;;8.24;37.95;95963.09;2076550;28;20247;-57
2022/12/12 13:12:45;;;;;;;14.13;7.55;;;;;;;7.99;38.50;95967.66;2075227;28;20229;-57
2022/12/12 13:13:49;;;;;;;13.10;7.47;;;;;;;7.47;39.29;95951.78;2074531;28;20209;-57
2022/12/12 13:14:57;;;;;;;13.82;6.22;;;;;;;7.49;38.82;95957.75;2075380;28;20200;-66
2022/12/12 13:16:19;;;;;;;14.85;7.10;;;;;;;6.02;40.52;95967.06;2074972;28;20288;-67
2022/12/12 13:17:38;;;;;;;12.40;6.15;;;;;;;6.18;41.12;95956.97;2074487;28;20242;-66
2022/12/12 13:18:42;;;;;;;16.00;7.68;;;;;;;7.01;39.84;95963.22;2075010;28;20204;-67
2022/12/12 13:19:49;;;;;;;14.02;6.55;;;;;;;7.87;38.97;95944.81;2071664;28;20293;-66
2022/12/12 13:20:58;;;;;;;15.52;6.65;;;;;;;7.88;39.05;95959.50;2074124;28;20558;-67
2022/12/12 13:22:05;;;;;;;9.95;5.95;;;;;;;8.02;38.02;95953.69;2075246;28;20197;-66
2022/12/12 13:23:29;;;;;;;13.65;6.50;;;;;;;7.34;38.63;95960.09;2075993;28;20193;-67
2022/12/12 13:24:47;;;;;;;10.38;5.20;;;;;;;7.00;39.76;95960.69;2075710;28;20292;-66
2022/12/12 13:26:10;;;;;;;10.63;5.85;;;;;;;7.47;38.65;95952.63;2074330;28;20201;-67
2022/12/12 13:27:25;;;;;;;9.15;5.10;;;;;;;7.97;37.64;95956.50;2071001;28;20221;-67
2022/12/12 13:28:41;;;;;;;10.05;5.82;;;;;;;7.60;38.44;95950.34;2073383;28;20734;-66
2022/12/12 13:29:53;;;;;;;15.75;6.05;;;;;;;7.21;39.47;95940.75;2074945;28;20288;-66
2022/12/12 13:31:04;;;;;;;12.32;6.20;;;;;;;7.83;39.16;95964.06;2075168;28;20603;-66
2022/12/12 13:32:37;;;;;;;12.07;6.53;;;;;;;8.14;38.49;95957.50;2073952;28;20248;-66
2022/12/12 13:33:45;;;;;;;10.52;5.68;;;;;;;8.26;37.69;95954.31;2073650;28;20355;-66
2022/12/12 13:34:52;;;;;;;11.85;6.07;;;;;;;7.57;38.54;95966.06;2076531;28;21106;-66
2022/12/12 13:36:04;;;;;;;12.57;7.03;;;;;;;6.56;40.08;95969.34;2075565;28;20595;-66
2022/12/12 13:37:20;;;;;;;12.00;6.00;;;;;;;6.52;40.63;95965.19;2073668;28;20565;-66
2022/12/12 13:38:28;;;;;;;12.15;6.30;;;;;;;6.59;40.18;95963.19;2074709;28;20280;-66
2022/12/12 13:39:33;;;;;;;18.45;6.57;;;;;;;6.59;40.75;95966.66;2075454;28;20270;-66
2022/12/12 13:40:41;;;;;;;12.77;5.28;;;;;;;6.51;39.86;95958.31;2071492;28;20233;-66
2022/12/12 13:42:00;;;;;;;9.95;5.80;;;;;;;7.03;39.82;95955.34;2074117;28;20198;-66
2022/12/12 13:43:13;;;;;;;7.60;5.00;;;;;;;6.50;39.62;95934.13;2074667;28;20571;-66
2022/12/12 13:44:38;;;;;;;7.72;4.43;;;;;;;6.97;38.38;95953.88;2074875;28;20280;-66
2022/12/12 13:45:42;;;;;;;7.55;3.85;;;;;;;6.93;37.89;95951.44;2073708;28;20201;-66
2022/12/12 13:46:43;;;;;;;9.00;4.97;;;;;;;6.40;39.13;95948.38;2073921;28;20212;-67
2022/12/12 13:47:49;;;;;;;12.13;3.40;;;;;;;6.17;38.91;95944.91;2075666;28;20817;-65
2022/12/12 13:48:56;;;;;;;7.32;3.80;;;;;;;6.15;39.37;95946.72;2074039;28;20193;-66
2022/12/12 13:50:17;;;;;;;7.82;3.92;;;;;;;6.12;39.41;95943.38;2073748;28;20198;-66
2022/12/12 13:51:32;;;;;;;8.38;3.42;;;;;;;6.03;38.86;95945.44;2075709;28;20210;-66
2022/12/12 13:52:41;;;;;;;8.57;3.58;;;;;;;6.95;37.93;95944.47;2074046;28;20216;-65
2022/12/12 13:53:42;;;;;;;5.05;3.20;;;;;;;6.15;39.33;95931.16;2073321;28;20198;-66
2022/12/12 13:54:46;;;;;;;5.63;3.70;;;;;;;5.87;38.59;95939.94;2074738;28;20238;-66
2022/12/12 13:55:47;;;;;;;8.15;2.80;;;;;;;5.86;38.49;95940.00;2075417;28;20209;-66
2022/12/12 13:56:51;;;;;;;9.95;3.30;;;;;;;6.33;38.27;95937.38;2075024;28;20209;-66
2022/12/12 13:57:56;;;;;;;6.45;2.90;;;;;;;6.50;37.83;95941.91;2074432;28;20201;-66
2022/12/12 13:59:00;;;;;;;5.25;2.95;;;;;;;6.60;37.79;95944.13;2075910;28;20209;-65
2022/12/12 14:00:13;;;;;;;6.65;2.65;;;;;;;5.72;37.53;95943.94;2075791;28;20498;-66
2022/12/12 14:01:30;;;;;;;8.25;2.70;;;;;;;6.24;37.75;95955.88;2074831;28;20283;-65
2022/12/12 14:02:40;;;;;;;6.70;2.90;;;;;;;5.95;38.08;95951.78;2076969;28;20303;-66
2022/12/12 14:03:45;;;;;;;5.15;3.00;;;;;;;5.30;39.02;95960.13;2074731;28;20207;-65
2022/12/12 14:05:07;;;;;;;6.35;3.90;;;;;;;5.37;39.98;95947.78;2073999;28;20700;-66
2022/12/12 14:06:11;;;;;;;5.78;3.67;;;;;;;4.41;41.39;95956.97;2075233;28;20284;-66
2022/12/12 14:07:16;;;;;;;6.70;3.30;;;;;;;4.28;41.71;95962.56;2071213;28;20547;-66
2022/12/12 14:08:26;;;;;;;9.27;4.35;;;;;;;4.66;42.23;95957.94;2072421;28;20198;-66
2022/12/12 14:09:32;;;;;;;13.75;4.22;;;;;;;3.76;43.09;95951.16;2075623;28;20204;-66
2022/12/12 14:10:48;;;;;;;9.02;4.70;;;;;;;3.76;43.85;95958.06;2074981;28;20202;-66
2022/12/12 14:11:49;;;;;;;12.68;5.10;;;;;;;3.96;44.15;95959.22;2075642;28;20201;-66
2022/12/12 14:12:52;;;;;;;9.50;5.47;;;;;;;4.31;43.04;95952.97;2076498;28;20206;-66
2022/12/12 14:14:21;;;;;;;7.10;4.00;;;;;;;3.70;43.83;95964.25;2075383;28;20201;-67
2022/12/12 14:15:30;;;;;;;9.57;4.20;;;;;;;3.84;44.13;95955.25;2074736;28;20209;-66
2022/12/12 14:16:34;;;;;;;11.80;4.25;;;;;;;3.89;43.60;95956.81;2074448;28;20295;-66
2022/12/12 14:17:38;;;;;;;12.15;5.20;;;;;;;4.41;43.71;95956.13;2073456;28;20221;-66
2022/12/12 14:18:49;;;;;;;20.20;6.80;;;;;;;4.15;44.01;95968.13;2076376;28;20198;-66
2022/12/12 14:19:53;;;;;;;14.35;5.57;;;;;;;4.18;44.38;95957.69;2075427;28;20204;-66
2022/12/12 14:21:02;;;;;;;8.23;4.72;;;;;;;4.35;43.48;95964.91;2074793;28;20236;-66
2022/12/12 14:22:03;;;;;;;6.65;3.80;;;;;;;3.87;43.54;95958.63;2074930;28;20327;-66
2022/12/12 14:23:19;;;;;;;9.65;4.63;;;;;;;3.41;44.72;95960.72;2075444;28;20201;-65
2022/12/12 14:24:33;;;;;;;8.25;4.30;;;;;;;3.53;44.71;95956.97;2074091;28;20231;-66
2022/12/12 14:25:38;;;;;;;6.60;3.30;;;;;;;3.27;45.01;95966.25;2074875;28;20280;-67
2022/12/12 14:26:39;;;;;;;8.55;3.30;;;;;;;3.14;45.15;95961.50;2076602;28;20197;-66
2022/12/12 14:27:47;;;;;;;5.55;3.20;;;;;;;2.81;46.03;95967.47;2071067;28;20221;-66
2022/12/12 14:29:22;;;;;;;7.25;3.58;;;;;;;2.75;46.04;95962.44;2072616;28;20197;-65
2022/12/12 14:30:43;;;;;;;6.10;3.10;;;;;;;2.43;46.44;95964.91;2054948;28;20206;-66
2022/12/12 14:32:09;;;;;;;6.60;3.80;;;;;;;3.32;45.41;95955.81;2072232;28;20251;-64
2022/12/12 14:33:14;;;;;;;6.68;3.58;;;;;;;3.51;44.52;95958.75;2074452;28;20224;-65
2022/12/12 14:34:33;;;;;;;9.18;3.42;;;;;;;3.62;44.03;95957.59;2072853;28;20213;-66
2022/12/12 14:36:00;;;;;;;22.85;4.10;;;;;;;2.87;45.21;95953.56;2076130;28;20204;-66
2022/12/12 14:37:20;;;;;;;8.13;4.07;;;;;;;2.42;45.81;95952.06;2072770;28;20201;-65
2022/12/12 14:38:34;;;;;;;5.40;3.63;;;;;;;2.60;46.57;95951.63;2073721;28;20851;-65
2022/12/12 14:39:54;;;;;;;8.73;3.28;;;;;;;2.92;45.82;95951.69;2076389;28;20202;-66
2022/12/12 14:41:00;;;;;;;12.68;4.22;;;;;;;3.13;46.03;95945.16;2076429;28;20197;-65
2022/12/12 14:42:05;;;;;;;10.98;4.30;;;;;;;3.17;45.42;95938.19;2075124;28;20205;-65
2022/12/12 14:43:11;;;;;;;7.43;3.35;;;;;;;3.02;46.20;95948.03;2077408;28;20201;-65
2022/12/12 14:44:27;;;;;;;7.40;3.65;;;;;;;3.23;46.66;95948.34;2076995;28;20200;-65
2022/12/12 14:45:40;;;;;;;7.63;3.92;;;;;;;3.31;46.80;95946.38;2077975;28;20197;-66
2022/12/12 14:46:41;;;;;;;10.48;3.65;;;;;;;3.34;46.26;95938.56;2076313;28;20252;-66
2022/12/12 14:47:43;;;;;;;11.73;3.97;;;;;;;3.02;47.03;95926.53;2079645;28;20216;-57
2022/12/12 14:48:44;;;;;;;8.40;3.90;;;;;;;2.98;47.00;95901.69;2080535;28;20288;-57
2022/12/12 14:49:46;;;;;;;11.50;3.75;;;;;;;3.10;47.55;95925.44;2077522;28;20224;-57
2022/12/12 14:51:06;;;;;;;6.85;3.63;;;;;;;2.95;47.37;95931.00;2076921;28;20212;-57
2022/12/12 14:52:15;;;;;;;27.42;4.70;;;;;;;3.00;47.42;95934.31;2076360;28;20229;-57
2022/12/12 14:53:20;;;;;;;10.80;4.35;;;;;;;3.14;47.53;95922.78;2076965;28;20201;-57
2022/12/12 14:54:23;;;;;;;6.47;2.97;;;;;;;2.93;47.57;95935.34;2076818;28;20210;-57
2022/12/12 14:55:25;;;;;;;5.90;3.50;;;;;;;3.20;47.39;95935.50;2075195;28;20569;-57
2022/12/12 14:56:28;;;;;;;10.02;4.97;;;;;;;3.12;49.15;95932.28;2077107;28;20204;-57
2022/12/12 14:57:30;;;;;;;15.40;8.20;;;;;;;3.09;50.66;95928.91;2073760;28;20606;-57
2022/12/12 14:58:35;;;;;;;24.48;12.02;;;;;;;2.97;52.33;95924.09;2073498;28;20228;-57
2022/12/12 14:59:39;;;;;;;26.55;14.02;;;;;;;2.77;54.87;95940.91;2075523;28;20205;-57
2022/12/12 15:00:51;;;;;;;28.65;14.80;;;;;;;2.74;56.05;95937.53;2074492;28;20206;-57
2022/12/12 15:01:59;;;;;;;31.17;15.57;;;;;;;2.69;57.04;95942.84;2075746;28;20697;-57
2022/12/12 15:03:02;;;;;;;28.88;14.65;;;;;;;2.71;56.66;95940.22;2076967;28;20197;-57
2022/12/12 15:04:07;;;;;;;26.65;14.70;;;;;;;2.42;57.38;95936.59;2077036;28;20193;-57
2022/12/12 15:05:13;;;;;;;34.47;16.83;;;;;;;2.28;58.38;95934.34;2075744;28;20208;-57
2022/12/12 15:06:26;;;;;;;34.47;17.63;;;;;;;2.11;58.79;95934.75;2076868;28;20193;-57
2022/12/12 15:07:30;;;;;;;27.05;14.80;;;;;;;2.15;59.16;95940.69;2075497;28;20220;-57
2022/12/12 15:08:32;;;;;;;40.80;16.30;;;;;;;1.93;59.76;95946.28;2075634;28;20198;-57
2022/12/12 15:09:38;;;;;;;27.48;15.35;;;;;;;1.84;59.63;95943.91;2074962;28;20577;-56
2022/12/12 15:10:40;;;;;;;33.85;15.38;;;;;;;1.76;60.21;95944.91;2075765;28;20721;-57
2022/12/12 15:11:41;;;;;;;28.00;15.68;;;;;;;1.50;61.38;95952.31;2075307;28;20881;-56
2022/12/12 15:12:43;;;;;;;33.90;17.80;;;;;;;1.45;61.63;95939.56;2076369;28;20225;-56
2022/12/12 15:13:53;;;;;;;36.05;18.52;;;;;;;1.37;61.60;95959.44;2076595;28;20213;-56
2022/12/12 15:14:56;;;;;;;35.08;18.60;;;;;;;1.04;63.10;95957.50;2075516;28;20252;-56
2022/12/12 15:15:58;;;;;;;34.65;18.52;;;;;;;0.72;63.46;95925.47;2075689;28;20193;-56
2022/12/12 15:17:06;;;;;;;33.80;18.08;;;;;;;0.82;63.93;95969.84;2075702;28;20202;-56
2022/12/12 15:18:09;;;;;;;35.72;17.85;;;;;;;0.69;65.13;95964.09;2075451;28;20229;-56
2022/12/12 15:19:18;;;;;;;35.88;18.23;;;;;;;-0.06;66.70;95950.69;2072795;28;20606;-56
2022/12/12 15:20:26;;;;;;;38.28;18.40;;;;;;;-0.01;67.59;95977.13;2074702;28;20664;-56
2022/12/12 15:21:31;;;;;;;36.78;18.23;;;;;;;-0.14;67.83;95968.75;2074344;28;20232;-56
2022/12/12 15:22:35;;;;;;;35.80;17.15;;;;;;;-0.07;67.88;95972.91;2076658;28;20263;-55
2022/12/12 15:23:40;;;;;;;37.63;18.48;;;;;;;-0.20;67.87;95981.66;2077239;28;20288;-56
2022/12/12 15:24:43;;;;;;;46.00;21.52;;;;;;;-0.29;68.98;95977.50;2073834;28;20201;-56
2022/12/12 15:25:53;;;;;;;45.38;21.23;;;;;;;-0.45;69.37;95971.69;2074146;28;20230;-56
2022/12/12 15:26:57;;;;;;;46.75;19.38;;;;;;;-0.75;69.86;95971.19;2074743;28;20289;-56